Estació municipal de Seva (Osona, P.N. del Montseny)

Consulta les dades en temps real de l'estació municipal de Seva





Hora UTC 11:55
Temperatura 27.5 ºC
Sòl 15 cm 32.7 ºC
Humitat 52.4 %
Pressió 1023.8 hPa
Pluja 0.0 mm
Velocitat vent 10.1 km/h
Direcció vent SSE
Radiació solar 762.3 W/m²

Webcam

Dades diàries 2026-09-01



Hora UTC (hivern +1h; estiu +2h)
Temperatura (ºC) Humitat (%) Pressió (hPa) Velocitat vent (km/h) Precipitació (mm) Radiació solar (W/m²)
Hora UTC Aire Sòl 15 cm Humitat Pressió Vel. Dir. Vel. Max Dir. Intent. màx 5 min. Rad. Sol.
00:05 19.2 18.3 90.5 1024.4 3.7 S 3.7 S 0.0 0.1
00:10 19.3 18.6 90.3 1024.4 2.1 SSE 4.9 SSE 0.0 0.0
00:15 19.4 18.8 89.9 1024.3 1.6 SSE 4.6 SSE 0.0 0.1
00:20 19.4 18.9 90.0 1024.4 1.4 SSE 4.9 SE 0.0 0.1
00:25 19.6 19.1 90.5 1024.3 2.3 SSE 5.3 ESE 0.0 0.1
00:30 19.8 19.2 90.7 1024.3 3.3 SE 7.4 ESE 0.0 0.1
00:35 19.9 19.3 90.9 1024.2 4.1 SE 7.1 SSE 0.0 0.1
00:40 19.9 19.4 90.6 1024.2 3.8 SE 7.1 SE 0.0 0.1
00:45 20.0 19.4 90.9 1024.2 4.2 SSE 8.1 SSE 0.0 0.0
00:50 20.1 19.5 91.0 1024.2 3.8 SSE 7.8 SSE 0.0 0.1
00:55 20.1 19.6 91.1 1024.2 4.3 SE 10.9 ESE 0.0 0.0
01:00 20.1 19.6 91.2 1024.2 3.7 SE 8.1 SSE 0.0 0.0
01:05 20.1 19.7 91.2 1024.3 4.7 SE 9.2 SE 0.0 0.0
01:10 20.2 19.6 91.2 1024.2 2.5 SSE 7.4 SSE 0.0 0.1
01:15 20.2 19.7 91.1 1024.2 2.3 SSE 5.6 SSE 0.0 0.1
01:20 20.2 19.7 90.9 1024.2 2.4 SSE 6.4 SE 0.0 0.0
01:25 20.2 19.6 90.8 1024.2 1.8 SE 3.9 E 0.0 0.1
01:30 20.1 19.4 90.9 1024.2 3.1 SSE 5.3 SSE 0.0 0.1
01:35 20.1 19.4 91.1 1024.2 2.1 SE 5.3 ESE 0.0 0.0
01:40 20.1 19.4 91.2 1024.2 2.5 SE 6.4 SE 0.0 0.0
01:45 20.0 19.3 91.4 1024.2 2.2 SE 5.6 SSE 0.0 0.0
01:50 20.0 19.2 91.6 1024.2 3.5 ESE 6.0 E 0.0 0.0
01:55 20.0 19.2 91.8 1024.2 3.0 SE 6.0 SE 0.0 0.1
02:00 20.0 19.1 91.9 1024.2 2.7 SSE 5.6 S 0.0 0.0
02:05 20.0 19.3 91.8 1024.2 1.4 SSE 3.5 SSW 0.0 0.1
02:10 20.0 19.4 91.7 1024.1 1.4 S 4.6 SE 0.0 0.1
02:15 20.0 19.5 91.5 1024.1 2.2 S 5.3 S 0.0 0.0
02:20 20.1 19.6 91.3 1024.1 1.8 S 4.6 SSW 0.0 0.0
02:25 20.1 19.7 91.2 1024.1 1.2 S 4.9 S 0.0 0.1
02:30 20.1 19.7 91.1 1024.0 3.4 SSE 7.1 S 0.0 0.0
02:35 20.2 19.7 91.1 1023.9 3.5 SSE 6.7 SSE 0.0 0.1
02:40 20.2 19.7 91.1 1023.9 2.7 SSE 6.4 ESE 0.0 0.1
02:45 20.2 19.7 91.0 1023.8 3.0 SE 6.7 SSE 0.0 0.0
02:50 20.2 19.6 91.0 1023.8 3.0 SSE 7.1 SE 0.0 0.0
02:55 20.2 19.6 91.0 1023.7 3.1 SE 6.7 SE 0.0 0.1
03:00 20.2 19.4 91.0 1023.7 2.9 SE 5.3 SE 0.0 0.0
03:05 20.1 19.3 91.0 1023.7 1.8 SE 3.9 SSE 0.0 0.0
03:10 20.1 19.3 91.0 1023.7 1.6 SSE 3.2 SSE 0.0 0.1
03:15 20.0 19.2 91.0 1023.7 2.0 SSE 4.2 SE 0.0 0.0
03:20 20.0 19.1 91.1 1023.6 2.2 SE 3.9 SE 0.0 0.0
03:25 19.9 19.1 91.1 1023.6 2.6 SE 4.2 ESE 0.0 0.0
03:30 19.9 19.1 90.9 1023.5 3.5 ESE 5.6 ESE 0.0 0.1
03:35 19.9 19.2 90.7 1023.5 3.0 SE 4.6 SE 0.0 0.1
03:40 19.9 19.2 90.5 1023.5 3.3 SE 4.9 SE 0.0 0.1
03:45 19.9 19.2 90.2 1023.5 1.7 SSE 3.9 SE 0.0 0.0
03:50 19.9 19.3 90.1 1023.5 0.3 SSE 1.8 S 0.0 0.0
03:55 19.9 19.2 90.1 1023.4 1.3 SE 3.5 ESE 0.0 0.0
04:00 19.9 19.2 90.0 1023.4 2.5 ESE 3.5 ESE 0.0 0.0
04:05 19.9 19.2 89.9 1023.4 2.3 ESE 3.5 ESE 0.0 0.1
04:10 19.8 19.2 89.8 1023.4 2.9 E 3.9 ENE 0.0 0.0
04:15 19.8 19.2 89.9 1023.4 2.2 ESE 3.5 ESE 0.0 0.0
04:20 19.9 19.2 90.0 1023.3 3.7 SE 6.4 SE 0.0 0.1
04:25 19.8 19.1 89.7 1023.3 3.9 SE 6.4 ESE 0.0 0.1
04:30 19.8 18.9 89.3 1023.2 3.3 SE 6.0 ESE 0.0 0.1
04:35 19.7 18.6 89.2 1023.2 1.6 NNW 4.2 NW 0.0 0.1
04:40 19.5 18.3 89.3 1023.3 1.4 WNW 4.2 NW 0.0 0.0
04:45 19.3 17.8 89.8 1023.2 0.2 ESE 2.1 ESE 0.0 0.1
04:50 19.1 17.4 90.7 1023.2 2.4 SE 3.2 SE 0.0 0.1
04:55 18.9 17.1 91.3 1023.2 0.9 SE 2.1 SE 0.0 0.1
05:00 18.7 17.0 91.7 1023.2 1.3 NNW 3.2 NNW 0.0 0.2
05:05 18.6 16.8 92.0 1023.3 1.8 WNW 3.5 W 0.0 0.5
05:10 18.4 16.6 92.5 1023.3 1.7 SW 3.2 SW 0.0 1.0
05:15 18.3 16.5 93.1 1023.3 2.7 S 3.5 S 0.0 1.9
05:20 18.1 16.5 93.3 1023.3 1.9 SE 3.2 SSE 0.0 3.1
05:25 18.0 16.5 93.5 1023.3 1.8 E 4.2 E 0.0 4.8
05:30 17.9 16.5 93.9 1023.3 4.2 E 5.3 E 0.0 7.2
05:35 18.0 16.6 94.3 1023.4 5.0 E 6.4 ESE 0.0 9.6
05:40 18.0 16.7 94.6 1023.4 5.1 ESE 6.0 E 0.0 13.2
05:45 18.2 16.8 94.9 1023.5 4.9 ESE 6.0 ESE 0.0 17.7
05:50 18.1 16.9 94.4 1023.5 3.2 E 4.2 ESE 0.0 24.3
05:55 18.1 16.8 94.2 1023.5 3.3 E 3.9 E 0.0 33.5
06:00 18.0 16.9 93.9 1023.4 3.4 ESE 3.9 ESE 0.0 47.5
06:05 18.0 17.0 93.6 1023.5 3.3 ESE 4.9 ESE 0.0 60.3
06:10 18.2 17.1 93.6 1023.5 3.0 ESE 4.2 SSE 0.0 77.6
06:15 18.4 17.3 93.5 1023.5 2.9 ESE 4.2 SE 0.0 95.3
06:20 18.6 17.6 93.2 1023.4 3.2 ESE 4.2 ESE 0.0 110.4
06:25 18.8 17.9 92.9 1023.4 2.2 ESE 3.5 ESE 0.0 127.5
06:30 19.1 18.2 92.7 1023.5 1.4 SE 2.8 SE 0.0 139.6
06:35 19.4 18.5 92.9 1023.5 0.2 S 1.8 SSE 0.0 153.4
06:40 20.0 18.8 91.7 1023.6 0.5 NW 2.5 NW 0.0 166.3
06:45 20.5 19.4 88.3 1023.6 3.7 NW 5.3 NW 0.0 182.0
06:50 20.8 20.8 86.2 1023.6 2.8 WNW 4.6 WNW 0.0 194.6
06:55 21.1 22.5 85.1 1023.7 1.0 NW 2.5 WNW 0.0 206.5
07:00 21.5 22.6 83.5 1023.6 0.2 NW 2.1 NW 0.0 223.2
07:05 22.0 22.9 81.2 1023.6 1.1 NW 3.2 NW 0.0 238.2
07:10 22.2 23.4 80.2 1023.6 1.8 NW 3.5 NW 0.0 252.2
07:15 22.5 24.1 78.9 1023.7 0.9 NNW 2.8 NNW 0.0 265.0
07:20 22.9 25.3 77.0 1023.7 1.1 NNE 3.2 N 0.0 282.5
07:25 23.4 26.4 75.1 1023.8 1.3 NE 2.8 NNE 0.0 298.6
07:30 23.6 27.2 73.7 1023.8 1.3 NE 3.2 ENE 0.0 268.9
07:35 23.3 27.3 73.5 1023.8 3.8 NW 7.4 WNW 0.0 260.2
07:40 23.0 27.5 75.0 1023.7 4.8 WNW 9.2 WNW 0.0 356.0
07:45 23.1 28.4 74.1 1023.6 5.0 NNW 8.8 WNW 0.0 368.8
07:50 23.4 28.9 72.7 1023.6 4.6 NNE 8.1 N 0.0 366.2
07:55 23.6 29.0 71.2 1023.6 3.2 N 7.8 NNW 0.0 384.5
08:00 24.0 29.3 70.8 1023.6 4.5 N 8.5 NNE 0.0 400.7
08:05 24.0 30.0 70.2 1023.6 6.3 N 12.4 N 0.0 417.2
08:10 23.9 30.1 70.1 1023.6 2.9 NE 8.1 NNE 0.0 426.0
08:15 24.0 30.3 69.5 1023.6 6.5 NNW 15.2 NNW 0.0 439.9
08:20 24.1 30.5 70.0 1023.7 3.5 N 9.5 N 0.0 453.4
08:25 24.1 30.6 68.2 1023.6 4.7 NW 11.6 NNW 0.0 466.1
08:30 23.9 30.5 68.9 1023.7 7.1 NW 11.6 NW 0.0 468.8
08:35 24.0 30.9 68.2 1023.7 4.1 N 7.8 NNW 0.0 489.7
08:40 24.4 31.3 67.5 1023.7 4.6 N 10.2 N 0.0 502.7
08:45 24.4 31.5 66.5 1023.7 7.2 WNW 12.7 WNW 0.0 514.6
08:50 24.3 31.6 67.5 1023.7 9.4 NW 14.8 NNW 0.0 524.9
08:55 24.3 31.4 66.7 1023.7 7.0 NNW 10.9 NNW 0.0 537.3
09:00 24.2 31.8 67.3 1023.6 2.7 NNE 8.5 NNE 0.0 550.6
09:05 24.8 32.6 66.4 1023.6 3.9 WNW 11.3 WNW 0.0 562.3
09:10 24.9 32.5 65.0 1023.7 9.5 NW 17.6 WNW 0.0 571.6
09:15 24.6 32.1 65.6 1023.7 8.0 NW 12.7 NNW 0.0 584.1
09:20 24.8 32.6 65.5 1023.7 4.8 W 9.9 W 0.0 594.8
09:25 25.1 33.1 63.8 1023.8 5.3 W 8.8 NNW 0.0 605.5
09:30 25.2 33.3 63.5 1023.8 5.0 WSW 9.9 WSW 0.0 615.6
09:35 25.5 33.4 61.8 1023.7 4.1 WSW 7.1 SW 0.0 624.7
09:40 25.6 33.7 61.3 1023.7 3.7 WSW 7.1 WNW 0.0 634.9
09:45 25.9 33.9 61.0 1023.7 2.9 S 9.2 SW 0.0 644.2
09:50 26.1 34.2 58.5 1023.6 4.7 W 11.3 WSW 0.0 653.2
09:55 26.5 34.5 58.6 1023.6 3.3 WSW 9.2 W 0.0 658.1
10:00 27.1 34.8 56.5 1023.6 7.3 SW 16.2 W 0.0 665.7
10:05 27.3 34.7 56.8 1023.6 5.7 SSW 16.6 SSW 0.0 676.4
10:10 27.9 34.9 54.0 1023.7 8.8 SSW 20.1 SSW 0.0 683.0
10:15 27.4 33.6 55.0 1023.7 15.4 SSW 24.0 S 0.0 690.8
10:20 27.3 33.1 56.3 1023.8 10.5 S 24.0 SSE 0.0 696.6
10:25 27.2 32.7 56.0 1023.8 11.9 S 22.6 SSW 0.0 704.6
10:30 26.9 32.1 57.0 1023.8 8.9 SSE 19.8 SSW 0.0 711.8
10:35 26.9 32.1 56.4 1023.8 11.1 S 26.1 S 0.0 714.6
10:40 27.0 32.2 56.2 1023.8 10.1 S 20.8 S 0.0 720.7
10:45 27.1 32.4 55.9 1023.8 8.5 SSE 29.6 SSW 0.0 727.3
10:50 27.0 32.3 55.6 1023.8 11.2 S 22.6 SSE 0.0 733.2
10:55 27.0 32.2 55.6 1023.8 10.5 S 24.7 S 0.0 734.8
11:00 27.3 32.5 54.6 1023.8 12.6 S 25.4 SSE 0.0 739.9
11:05 27.2 32.4 55.3 1023.8 10.1 S 27.2 S 0.0 745.8
11:10 27.7 33.4 53.5 1023.8 11.7 S 28.2 S 0.0 748.1
11:15 27.3 33.2 53.7 1023.8 9.8 S 25.8 SW 0.0 755.4
11:20 27.4 33.1 53.6 1023.8 13.4 SSW 31.4 SW 0.0 758.4
11:25 27.5 33.2 53.1 1023.8 11.5 S 23.6 SW 0.0 758.8
11:30 27.2 32.8 53.5 1023.8 12.8 S 25.8 S 0.0 761.7
11:35 27.4 32.7 52.2 1023.8 9.4 SSE 19.4 SSE 0.0 763.2
11:40 27.8 33.4 50.9 1023.8 8.3 S 22.6 SSW 0.0 764.3
11:45 27.8 33.2 50.9 1023.7 13.7 SSE 23.6 SE 0.0 766.7
11:50 27.4 32.8 52.3 1023.8 11.9 SSE 25.1 SSE 0.0 766.2
11:55 27.5 32.7 52.4 1023.8 10.1 SSE 24.0 SSE 0.0 762.3
Màxima 27.9 34.9 94.9 1024.4 15.4 SSW 31.4 SW 0.0 766.7
Mínima 17.9 16.5 50.9 1023.2
Total 0.0